createdAt,value
2023-02-14T00:01:11.650Z,0.30
2023-02-14T00:03:38.760Z,0.20
2023-02-14T00:06:10.328Z,0.20
2023-02-14T00:08:37.641Z,0.20
2023-02-14T00:11:05.581Z,0.20
2023-02-14T00:13:32.800Z,0.20
2023-02-14T00:15:59.764Z,0.20
2023-02-14T00:18:46.643Z,0.10
2023-02-14T00:21:13.545Z,0.10
2023-02-14T00:23:40.317Z,0.00
2023-02-14T00:26:14.128Z,0.10
2023-02-14T00:28:41.058Z,0.20
2023-02-14T00:31:07.961Z,0.20
2023-02-14T00:33:34.807Z,0.30
2023-02-14T00:36:04.251Z,0.20
2023-02-14T00:38:31.057Z,0.20
2023-02-14T00:40:58.065Z,0.30
2023-02-14T00:43:25.212Z,0.30
2023-02-14T00:45:52.005Z,0.30
2023-02-14T00:48:18.802Z,0.20
2023-02-14T00:50:48.584Z,0.20
2023-02-14T00:53:15.439Z,0.30
2023-02-14T00:55:46.310Z,0.30
2023-02-14T00:58:13.201Z,0.30
2023-02-14T01:00:40.103Z,0.20
2023-02-14T01:03:06.889Z,0.20
2023-02-14T01:05:33.672Z,0.20
2023-02-14T01:08:00.529Z,0.20
2023-02-14T01:10:27.377Z,0.20
2023-02-14T01:12:54.163Z,0.30
2023-02-14T01:15:20.944Z,0.30
2023-02-14T01:17:47.769Z,0.30
2023-02-14T01:20:14.878Z,0.30
2023-02-14T01:22:42.593Z,0.30
2023-02-14T01:25:09.556Z,0.30
2023-02-14T01:27:36.915Z,0.30
2023-02-14T01:30:04.234Z,0.20
2023-02-14T01:32:31.974Z,0.20
2023-02-14T01:34:59.123Z,0.20
2023-02-14T01:37:26.420Z,0.20
2023-02-14T01:39:53.273Z,0.10
2023-02-14T01:42:20.069Z,0.10
2023-02-14T01:44:49.814Z,0.00
2023-02-14T01:47:17.566Z,0.10
2023-02-14T01:49:52.483Z,0.10
2023-02-14T01:52:25.298Z,0.10
2023-02-14T01:55:10.722Z,-0.10
2023-02-14T01:57:43.894Z,-0.20
2023-02-14T02:00:30.312Z,-0.20
2023-02-14T02:02:59.954Z,-0.30
2023-02-14T02:05:27.381Z,-0.20
2023-02-14T02:07:57.415Z,-0.20
2023-02-14T02:10:24.324Z,-0.30
2023-02-14T02:12:52.898Z,-0.30
2023-02-14T02:15:25.285Z,-0.30
2023-02-14T02:18:26.826Z,-0.30
2023-02-14T02:21:05.738Z,-0.40
2023-02-14T02:23:56.349Z,-0.40
2023-02-14T02:26:41.284Z,-0.40
2023-02-14T02:29:19.976Z,-0.50
2023-02-14T02:31:49.624Z,-0.50
2023-02-14T02:34:58.206Z,-0.50
2023-02-14T02:37:51.369Z,-0.50
2023-02-14T02:40:39.966Z,-0.60
2023-02-14T02:43:32.926Z,-0.60
2023-02-14T02:46:35.145Z,-0.70
2023-02-14T02:49:10.058Z,-0.70
2023-02-14T02:52:11.483Z,-0.70
2023-02-14T02:54:44.352Z,-0.70
2023-02-14T02:57:22.185Z,-0.70
2023-02-14T02:59:51.044Z,-0.70
2023-02-14T03:02:28.001Z,-0.70
2023-02-14T03:04:58.516Z,-0.70
2023-02-14T03:07:37.479Z,-0.80
2023-02-14T03:10:18.208Z,-0.80
2023-02-14T03:12:53.748Z,-0.80
2023-02-14T03:15:26.255Z,-0.80
2023-02-14T03:18:02.171Z,-0.80
2023-02-14T03:20:46.952Z,-0.80
2023-02-14T03:23:22.480Z,-0.70
2023-02-14T03:26:22.175Z,-0.70
2023-02-14T03:29:03.940Z,-0.70
2023-02-14T03:31:40.900Z,-0.80
2023-02-14T03:34:50.894Z,-0.80
2023-02-14T03:37:24.775Z,-0.90
2023-02-14T03:40:13.340Z,-0.80
2023-02-14T03:42:54.866Z,-0.80
2023-02-14T03:45:29.094Z,-0.80
2023-02-14T03:48:02.005Z,-0.90
2023-02-14T03:50:29.722Z,-0.90
2023-02-14T03:52:58.158Z,-1.00
2023-02-14T03:55:32.944Z,-1.00
2023-02-14T03:58:16.975Z,-0.90
2023-02-14T04:00:46.604Z,-0.90
2023-02-14T04:03:15.269Z,-0.90
2023-02-14T04:05:46.821Z,-0.90
2023-02-14T04:08:22.132Z,-0.90
2023-02-14T04:10:50.517Z,-0.80
2023-02-14T04:13:17.280Z,-0.80
2023-02-14T04:15:44.314Z,-0.90
2023-02-14T04:18:29.597Z,-0.90
2023-02-14T04:20:56.379Z,-0.90
2023-02-14T04:23:23.300Z,-0.90
2023-02-14T04:25:50.086Z,-0.90
2023-02-14T04:28:16.917Z,-1.00
2023-02-14T04:30:43.720Z,-1.00
2023-02-14T04:33:10.806Z,-0.90
2023-02-14T04:35:38.059Z,-1.00
2023-02-14T04:38:05.566Z,-1.00
2023-02-14T04:40:32.362Z,-1.00
2023-02-14T04:43:01.407Z,-0.90
2023-02-14T04:45:28.267Z,-0.80
2023-02-14T04:47:55.052Z,-0.70
2023-02-14T04:50:23.549Z,-0.70
2023-02-14T04:52:50.377Z,-0.70
2023-02-14T04:55:17.225Z,-0.70
2023-02-14T04:57:44.006Z,-0.70
2023-02-14T05:00:11.511Z,-0.70
2023-02-14T05:02:38.375Z,-0.70
2023-02-14T05:05:05.434Z,-0.80
2023-02-14T05:07:32.237Z,-0.70
2023-02-14T05:09:59.055Z,-0.60
2023-02-14T05:12:25.850Z,-0.60
2023-02-14T05:14:52.699Z,-0.70
2023-02-14T05:17:19.475Z,-0.80
2023-02-14T05:19:46.267Z,-0.80
2023-02-14T05:22:13.083Z,-0.80
2023-02-14T05:24:39.860Z,-0.80
2023-02-14T05:27:07.626Z,-0.70
2023-02-14T05:29:34.392Z,-0.70
2023-02-14T05:32:01.220Z,-0.60
2023-02-14T05:34:28.071Z,-0.70
2023-02-14T05:36:55.113Z,-0.60
2023-02-14T05:39:21.889Z,-0.60
2023-02-14T05:41:48.721Z,-0.60
2023-02-14T05:44:15.482Z,-0.60
2023-02-14T05:46:42.269Z,-0.50
2023-02-14T05:49:09.074Z,-0.50
2023-02-14T05:51:35.948Z,-0.50
2023-02-14T05:54:02.765Z,-0.50
2023-02-14T05:56:29.593Z,-0.60
2023-02-14T05:58:56.334Z,-0.50
2023-02-14T06:01:23.201Z,-0.50
2023-02-14T06:03:49.965Z,-0.40
2023-02-14T06:06:16.781Z,-0.50
2023-02-14T06:08:43.538Z,-0.50
2023-02-14T06:11:10.304Z,-0.50
2023-02-14T06:13:37.186Z,-0.50
2023-02-14T06:16:04.957Z,-0.50
2023-02-14T06:18:31.751Z,-0.50
2023-02-14T06:20:58.856Z,-0.40
2023-02-14T06:23:26.167Z,-0.40
2023-02-14T06:25:52.990Z,-0.40
2023-02-14T06:28:19.929Z,-0.40
2023-02-14T06:30:47.530Z,-0.50
2023-02-14T06:33:14.818Z,-0.40
2023-02-14T06:35:41.718Z,-0.40
2023-02-14T06:38:08.633Z,-0.40
2023-02-14T06:40:35.444Z,-0.30
2023-02-14T06:43:02.360Z,-0.30
2023-02-14T06:45:29.251Z,-0.20
2023-02-14T06:47:56.119Z,-0.30
2023-02-14T06:50:23.052Z,-0.20
2023-02-14T06:52:51.609Z,-0.30
2023-02-14T06:55:18.901Z,-0.30
2023-02-14T06:57:45.973Z,-0.30
2023-02-14T07:00:15.004Z,-0.40
2023-02-14T07:02:42.139Z,-0.50
2023-02-14T07:05:09.178Z,-0.40
2023-02-14T07:07:36.225Z,-0.40
2023-02-14T07:10:05.525Z,-0.40
2023-02-14T07:12:32.459Z,-0.40
2023-02-14T07:14:59.394Z,-0.20
2023-02-14T07:17:28.212Z,-0.20
2023-02-14T07:19:57.769Z,-0.20
2023-02-14T07:22:24.622Z,-0.30
2023-02-14T07:24:51.502Z,-0.40
2023-02-14T07:27:18.375Z,-0.40
2023-02-14T07:29:45.320Z,-0.30
2023-02-14T07:32:12.277Z,-0.30
2023-02-14T07:34:39.305Z,-0.30
2023-02-14T07:37:06.283Z,-0.30
2023-02-14T07:39:33.195Z,-0.20
2023-02-14T07:42:00.355Z,-0.30
2023-02-14T07:44:27.385Z,-0.20
2023-02-14T07:46:54.235Z,-0.20
2023-02-14T07:49:21.145Z,-0.10
2023-02-14T07:51:48.065Z,-0.20
2023-02-14T07:54:14.996Z,-0.20
2023-02-14T07:56:41.854Z,-0.30
2023-02-14T07:59:08.692Z,-0.30
2023-02-14T08:01:35.515Z,-0.30
2023-02-14T08:04:02.336Z,-0.10
2023-02-14T08:06:29.191Z,0.00
2023-02-14T08:08:55.982Z,0.10
2023-02-14T08:11:41.546Z,0.10
2023-02-14T08:14:08.470Z,0.10
2023-02-14T08:16:35.369Z,0.20
2023-02-14T08:19:02.601Z,0.30
2023-02-14T08:21:29.577Z,0.30
2023-02-14T08:23:56.799Z,0.30
2023-02-14T08:26:23.607Z,0.40
2023-02-14T08:28:50.654Z,0.50
2023-02-14T08:31:35.600Z,0.60
2023-02-14T08:34:07.276Z,0.70
2023-02-14T08:36:34.981Z,0.80
2023-02-14T08:39:03.922Z,0.70
2023-02-14T08:41:30.932Z,0.70
2023-02-14T08:43:57.836Z,0.70
2023-02-14T08:46:24.699Z,0.90
2023-02-14T08:48:53.457Z,0.90
2023-02-14T08:51:21.969Z,1.00
2023-02-14T08:53:50.987Z,1.10
2023-02-14T08:56:18.112Z,1.00
2023-02-14T08:58:44.982Z,1.00
2023-02-14T09:01:17.289Z,1.00
2023-02-14T09:03:44.768Z,1.10
2023-02-14T09:06:17.232Z,1.20
2023-02-14T09:08:46.572Z,1.20
2023-02-14T09:11:18.384Z,1.40
2023-02-14T09:13:46.457Z,1.20
2023-02-14T09:16:14.470Z,1.30
2023-02-14T09:18:41.315Z,1.40
2023-02-14T09:21:15.520Z,1.60
2023-02-14T09:23:42.298Z,1.70
2023-02-14T09:26:11.182Z,1.90
2023-02-14T09:28:38.184Z,2.00
2023-02-14T09:31:17.248Z,1.90
2023-02-14T09:33:44.965Z,2.00
2023-02-14T09:36:30.461Z,2.30
2023-02-14T09:38:57.320Z,2.40
2023-02-14T09:41:30.304Z,2.50
2023-02-14T09:44:19.916Z,2.50
2023-02-14T09:46:51.367Z,2.50
2023-02-14T09:49:22.810Z,2.70
2023-02-14T09:51:52.849Z,2.70
2023-02-14T09:54:28.888Z,2.90
2023-02-14T09:57:07.685Z,2.80
2023-02-14T09:59:39.965Z,3.10
2023-02-14T10:02:37.716Z,3.20
2023-02-14T10:05:17.744Z,3.10
2023-02-14T10:07:59.836Z,3.20
2023-02-14T10:10:26.902Z,3.30
2023-02-14T10:13:21.757Z,3.40
2023-02-14T10:15:59.609Z,3.40
2023-02-14T10:18:36.851Z,3.90
2023-02-14T10:21:07.873Z,4.70
2023-02-14T10:24:14.139Z,5.80
2023-02-14T10:26:41.512Z,6.70
2023-02-14T10:29:15.344Z,7.90
2023-02-14T10:32:02.878Z,8.50
2023-02-14T10:34:54.099Z,8.20
2023-02-14T10:37:35.933Z,7.50
2023-02-14T10:40:17.646Z,7.20
2023-02-14T10:42:54.819Z,7.10
2023-02-14T10:45:41.863Z,6.90
2023-02-14T10:48:13.336Z,6.70
2023-02-14T10:50:55.362Z,6.90
2023-02-14T10:53:46.775Z,7.60
2023-02-14T10:56:27.822Z,8.30
2023-02-14T10:59:01.643Z,8.60
2023-02-14T11:01:28.964Z,8.70
2023-02-14T11:04:03.835Z,8.70
2023-02-14T11:06:31.107Z,8.60
2023-02-14T11:08:58.316Z,8.40
2023-02-14T11:11:35.289Z,8.60
2023-02-14T11:14:36.774Z,8.90
2023-02-14T11:17:22.187Z,9.40
2023-02-14T11:20:30.538Z,9.50
2023-02-14T11:22:57.635Z,9.60
2023-02-14T11:25:27.396Z,9.90
2023-02-14T11:28:07.787Z,10.20
2023-02-14T11:30:41.076Z,10.60
2023-02-14T11:33:30.251Z,11.20
2023-02-14T11:35:57.858Z,11.50
2023-02-14T11:38:39.894Z,11.40
2023-02-14T11:41:12.522Z,11.20
2023-02-14T11:43:44.504Z,11.20
2023-02-14T11:46:20.347Z,11.20
2023-02-14T11:49:06.941Z,11.80
2023-02-14T11:51:45.412Z,12.40
2023-02-14T11:54:26.306Z,12.80
2023-02-14T11:57:17.240Z,12.90
2023-02-14T11:59:52.929Z,13.10
2023-02-14T12:02:39.667Z,12.90
2023-02-14T12:05:28.554Z,13.30
2023-02-14T12:08:05.159Z,13.70
2023-02-14T12:10:36.780Z,13.80
2023-02-14T12:13:26.048Z,13.60
2023-02-14T12:15:56.474Z,13.90
2023-02-14T12:18:26.183Z,13.40
2023-02-14T12:21:16.888Z,13.20
2023-02-14T12:23:56.280Z,14.20
2023-02-14T12:26:32.236Z,14.30
2023-02-14T12:29:13.994Z,14.00
2023-02-14T12:31:42.176Z,14.60
2023-02-14T12:34:13.105Z,15.30
2023-02-14T12:37:13.893Z,15.60
2023-02-14T12:39:53.671Z,15.20
2023-02-14T12:42:39.513Z,15.30
2023-02-14T12:45:18.458Z,15.30
2023-02-14T12:48:09.585Z,15.50
2023-02-14T12:51:29.636Z,15.30
2023-02-14T12:54:11.296Z,15.30
2023-02-14T12:56:56.304Z,15.20
2023-02-14T12:59:26.245Z,16.00
2023-02-14T13:02:24.395Z,16.20
2023-02-14T13:05:01.592Z,15.70
2023-02-14T13:08:16.603Z,14.80
2023-02-14T13:11:01.865Z,15.40
2023-02-14T13:13:55.930Z,15.60
2023-02-14T13:16:30.380Z,15.70
2023-02-14T13:19:07.161Z,15.90
2023-02-14T13:21:37.465Z,15.50
2023-02-14T13:24:14.903Z,15.70
2023-02-14T13:26:45.266Z,15.50
2023-02-14T13:29:20.583Z,15.10
2023-02-14T13:31:48.564Z,15.40
2023-02-14T13:34:31.841Z,15.60
2023-02-14T13:37:00.475Z,15.40
2023-02-14T13:39:37.777Z,15.00
2023-02-14T13:42:05.924Z,15.30
2023-02-14T13:44:38.860Z,15.30
2023-02-14T13:47:07.795Z,15.50
2023-02-14T13:49:39.788Z,15.30
2023-02-14T13:52:06.800Z,15.10
2023-02-14T13:54:35.914Z,15.00
2023-02-14T13:57:25.092Z,14.50
2023-02-14T14:00:17.868Z,14.30
2023-02-14T14:02:45.671Z,14.70
2023-02-14T14:05:30.663Z,15.10
2023-02-14T14:08:20.668Z,14.70
2023-02-14T14:11:01.750Z,14.70
2023-02-14T14:13:40.877Z,15.00
2023-02-14T14:16:29.038Z,14.70
2023-02-14T14:19:04.897Z,14.50
2023-02-14T14:21:37.728Z,14.70
2023-02-14T14:24:25.802Z,14.70
2023-02-14T14:27:18.420Z,14.40
2023-02-14T14:29:45.546Z,13.90
2023-02-14T14:32:18.303Z,14.00
2023-02-14T14:34:53.878Z,13.70
2023-02-14T14:37:23.771Z,13.60
2023-02-14T14:39:57.619Z,13.10
2023-02-14T14:42:28.926Z,12.50
2023-02-14T14:45:01.896Z,12.30
2023-02-14T14:47:43.000Z,13.00
2023-02-14T14:50:23.088Z,12.80
2023-02-14T14:52:53.584Z,11.30
2023-02-14T14:55:27.437Z,9.70
2023-02-14T14:57:59.521Z,8.60
2023-02-14T15:00:34.765Z,7.80
2023-02-14T15:03:15.614Z,7.10
2023-02-14T15:05:43.437Z,6.60
2023-02-14T15:08:24.869Z,6.30
2023-02-14T15:10:56.136Z,6.00
2023-02-14T15:13:52.428Z,5.80
2023-02-14T15:16:31.517Z,6.20
2023-02-14T15:19:01.468Z,7.50
2023-02-14T15:21:28.420Z,8.60
2023-02-14T15:23:55.499Z,9.40
2023-02-14T15:26:29.234Z,10.00
2023-02-14T15:29:07.429Z,10.50
2023-02-14T15:31:42.123Z,10.80
2023-02-14T15:34:11.338Z,10.90
2023-02-14T15:36:38.220Z,10.70
2023-02-14T15:39:07.964Z,11.00
2023-02-14T15:41:34.982Z,11.20
2023-02-14T15:44:02.102Z,11.10
2023-02-14T15:46:38.672Z,11.20
2023-02-14T15:49:10.185Z,11.10
2023-02-14T15:51:38.517Z,11.10
2023-02-14T15:54:07.635Z,10.90
2023-02-14T15:56:41.761Z,10.50
2023-02-14T15:59:23.592Z,10.50
2023-02-14T16:02:00.135Z,9.90
2023-02-14T16:04:30.429Z,8.80
2023-02-14T16:07:25.740Z,8.10
2023-02-14T16:10:18.311Z,7.60
2023-02-14T16:13:00.696Z,6.80
2023-02-14T16:15:32.692Z,6.00
2023-02-14T16:18:01.119Z,5.20
2023-02-14T16:20:39.892Z,4.50
2023-02-14T16:23:25.218Z,3.90
2023-02-14T16:25:53.208Z,3.30
2023-02-14T16:28:20.595Z,3.00
2023-02-14T16:30:53.563Z,2.70
2023-02-14T16:33:23.622Z,2.50
2023-02-14T16:35:50.993Z,2.30
2023-02-14T16:38:20.180Z,2.20
2023-02-14T16:40:49.352Z,2.10
2023-02-14T16:43:18.640Z,2.00
2023-02-14T16:45:45.934Z,2.00
2023-02-14T16:48:15.759Z,1.90
2023-02-14T16:50:43.236Z,1.90
2023-02-14T16:53:24.095Z,1.80
2023-02-14T16:55:53.978Z,1.70
2023-02-14T16:58:25.603Z,1.70
2023-02-14T17:00:52.427Z,1.70
2023-02-14T17:03:19.371Z,1.60
2023-02-14T17:05:46.716Z,1.50
2023-02-14T17:08:15.068Z,1.40
2023-02-14T17:10:44.475Z,1.40
2023-02-14T17:13:11.780Z,1.30
2023-02-14T17:15:39.892Z,1.30
2023-02-14T17:18:11.318Z,1.20
2023-02-14T17:20:38.687Z,1.20
2023-02-14T17:23:05.521Z,1.30
2023-02-14T17:25:32.421Z,1.20
2023-02-14T17:28:01.035Z,1.20
2023-02-14T17:30:28.367Z,1.20
2023-02-14T17:32:55.372Z,1.20
2023-02-14T17:35:22.517Z,1.10
2023-02-14T17:37:49.508Z,1.10
2023-02-14T17:40:16.349Z,1.10
2023-02-14T17:42:43.224Z,1.20
2023-02-14T17:45:11.857Z,1.20
2023-02-14T17:47:41.035Z,1.20
2023-02-14T17:50:08.323Z,1.20
2023-02-14T17:52:35.221Z,1.20
2023-02-14T17:55:02.006Z,1.20
2023-02-14T17:57:28.844Z,1.20
2023-02-14T17:59:55.683Z,1.20
2023-02-14T18:02:22.539Z,1.20
2023-02-14T18:04:49.348Z,1.20
2023-02-14T18:07:16.510Z,1.20
2023-02-14T18:09:43.285Z,1.10
2023-02-14T18:12:14.488Z,1.10
2023-02-14T18:14:42.212Z,1.10
2023-02-14T18:17:09.138Z,1.10
2023-02-14T18:19:35.998Z,1.00
2023-02-14T18:22:02.809Z,1.00
2023-02-14T18:24:29.623Z,1.00
2023-02-14T18:26:56.465Z,0.90
2023-02-14T18:29:23.370Z,0.90
2023-02-14T18:31:50.480Z,0.90
2023-02-14T18:34:17.426Z,0.90
2023-02-14T18:36:44.259Z,0.90
2023-02-14T18:39:11.160Z,0.90
2023-02-14T18:41:38.105Z,0.90
2023-02-14T18:44:05.830Z,0.90
2023-02-14T18:46:35.575Z,1.00
2023-02-14T18:49:04.326Z,1.00
2023-02-14T18:51:33.695Z,0.90
2023-02-14T18:54:02.224Z,0.90
2023-02-14T18:56:34.282Z,0.90
2023-02-14T18:59:06.746Z,0.90
2023-02-14T19:01:38.441Z,0.90
2023-02-14T19:04:08.644Z,0.90
2023-02-14T19:06:36.251Z,0.80
2023-02-14T19:09:04.118Z,0.80
2023-02-14T19:11:31.804Z,0.70
2023-02-14T19:14:00.736Z,0.60
2023-02-14T19:16:31.289Z,0.60
2023-02-14T19:18:59.087Z,0.60
2023-02-14T19:21:30.483Z,0.60
2023-02-14T19:23:58.005Z,0.60
2023-02-14T19:26:30.350Z,0.50
2023-02-14T19:29:00.325Z,0.50
2023-02-14T19:31:27.834Z,0.50
2023-02-14T19:33:54.857Z,0.50
2023-02-14T19:36:24.177Z,0.40
2023-02-14T19:38:52.897Z,0.30
2023-02-14T19:41:27.195Z,0.30
2023-02-14T19:43:57.864Z,0.30
2023-02-14T19:46:25.410Z,0.30
2023-02-14T19:48:52.522Z,0.30
2023-02-14T19:51:31.469Z,0.30
2023-02-14T19:54:01.164Z,0.30
2023-02-14T19:56:30.602Z,0.30
2023-02-14T19:58:57.979Z,0.20
2023-02-14T20:01:32.010Z,0.20
2023-02-14T20:03:59.025Z,0.20
2023-02-14T20:06:27.362Z,0.10
2023-02-14T20:08:54.214Z,0.00
2023-02-14T20:11:23.985Z,0.00
2023-02-14T20:13:50.771Z,-0.10
2023-02-14T20:16:17.581Z,-0.10
2023-02-14T20:18:44.431Z,-0.10
2023-02-14T20:21:19.065Z,-0.10
2023-02-14T20:23:45.883Z,-0.10
2023-02-14T20:26:18.160Z,0.00
2023-02-14T20:28:45.046Z,0.00
2023-02-14T20:31:14.915Z,-0.10
2023-02-14T20:33:42.186Z,0.00
2023-02-14T20:36:09.704Z,-0.10
2023-02-14T20:38:36.502Z,-0.10
2023-02-14T20:41:08.481Z,-0.20
2023-02-14T20:43:35.592Z,-0.20
2023-02-14T20:46:03.869Z,-0.30
2023-02-14T20:48:31.775Z,-0.30
2023-02-14T20:50:58.847Z,-0.30
2023-02-14T20:53:25.949Z,-0.30
2023-02-14T20:55:53.365Z,-0.20
2023-02-14T20:58:20.622Z,-0.20
2023-02-14T21:00:48.971Z,-0.20
2023-02-14T21:03:15.898Z,-0.20
2023-02-14T21:05:43.120Z,-0.30
2023-02-14T21:08:09.911Z,-0.30
2023-02-14T21:10:36.681Z,-0.30
2023-02-14T21:13:03.489Z,-0.30
2023-02-14T21:15:30.396Z,-0.30
2023-02-14T21:17:57.857Z,-0.30
2023-02-14T21:20:24.700Z,-0.30
2023-02-14T21:22:51.540Z,-0.40
2023-02-14T21:25:18.428Z,-0.40
2023-02-14T21:27:46.471Z,-0.30
2023-02-14T21:30:13.707Z,-0.40
2023-02-14T21:32:40.494Z,-0.40
2023-02-14T21:35:07.486Z,-0.40
2023-02-14T21:37:34.282Z,-0.40
2023-02-14T21:40:01.110Z,-0.40
2023-02-14T21:42:27.970Z,-0.30
2023-02-14T21:45:13.324Z,-0.30
2023-02-14T21:47:40.272Z,-0.20
2023-02-14T21:50:25.984Z,-0.20
2023-02-14T21:52:52.824Z,-0.20
2023-02-14T21:55:19.733Z,-0.20
2023-02-14T21:57:46.519Z,-0.20
2023-02-14T22:00:13.686Z,-0.20
2023-02-14T22:02:40.725Z,-0.20
2023-02-14T22:05:08.066Z,-0.30
2023-02-14T22:07:35.471Z,-0.20
2023-02-14T22:10:03.496Z,-0.30
2023-02-14T22:12:30.476Z,-0.30
2023-02-14T22:15:00.280Z,-0.30
2023-02-14T22:17:27.989Z,-0.30
2023-02-14T22:19:55.232Z,-0.30
2023-02-14T22:22:22.155Z,-0.40
2023-02-14T22:24:49.002Z,-0.40
2023-02-14T22:27:16.217Z,-0.40
2023-02-14T22:29:43.248Z,-0.40
2023-02-14T22:32:10.685Z,-0.40
2023-02-14T22:34:37.520Z,-0.30
2023-02-14T22:37:04.400Z,-0.40
2023-02-14T22:39:31.183Z,-0.40
2023-02-14T22:41:58.330Z,-0.40
2023-02-14T22:44:25.315Z,-0.40
2023-02-14T22:46:52.174Z,-0.30
2023-02-14T22:49:20.277Z,-0.40
2023-02-14T22:51:47.160Z,-0.40
2023-02-14T22:54:15.972Z,-0.40
2023-02-14T22:56:45.311Z,-0.50
2023-02-14T22:59:21.790Z,-0.50
2023-02-14T23:01:49.780Z,-0.50
2023-02-14T23:04:18.385Z,-0.60
2023-02-14T23:06:45.249Z,-0.60
2023-02-14T23:09:12.974Z,-0.60
2023-02-14T23:11:41.019Z,-0.50
2023-02-14T23:14:26.546Z,-0.50
2023-02-14T23:17:12.010Z,-0.50
2023-02-14T23:19:57.303Z,-0.50
2023-02-14T23:22:42.083Z,-0.50
2023-02-14T23:25:11.070Z,-0.50
2023-02-14T23:27:41.395Z,-0.50
2023-02-14T23:30:11.988Z,-0.60
2023-02-14T23:32:38.862Z,-0.60
2023-02-14T23:35:06.260Z,-0.60
2023-02-14T23:37:33.619Z,-0.60
2023-02-14T23:40:00.496Z,-0.50
2023-02-14T23:42:28.278Z,-0.40
2023-02-14T23:45:15.048Z,-0.50
2023-02-14T23:47:41.854Z,-0.40
2023-02-14T23:50:09.095Z,-0.40
2023-02-14T23:52:38.483Z,-0.50
2023-02-14T23:55:05.776Z,-0.50
2023-02-14T23:57:32.598Z,-0.60
